createdAt,value
2018-12-03T00:00:22.455Z,2.07
2018-12-03T00:02:53.846Z,1.63
2018-12-03T00:05:22.574Z,1.13
2018-12-03T00:07:51.043Z,1.03
2018-12-03T00:10:19.544Z,1.53
2018-12-03T00:12:48.003Z,1.60
2018-12-03T00:15:16.543Z,1.90
2018-12-03T00:17:44.995Z,1.20
2018-12-03T00:20:13.477Z,1.50
2018-12-03T00:22:41.938Z,2.53
2018-12-03T00:25:10.455Z,1.90
2018-12-03T00:27:38.911Z,2.10
2018-12-03T00:30:09.466Z,1.20
2018-12-03T00:32:38.231Z,1.20
2018-12-03T00:35:08.345Z,1.10
2018-12-03T00:37:37.038Z,1.20
2018-12-03T00:40:06.666Z,1.60
2018-12-03T00:42:35.210Z,3.30
2018-12-03T00:45:03.770Z,1.40
2018-12-03T00:47:32.182Z,1.57
2018-12-03T00:50:00.707Z,1.70
2018-12-03T00:52:29.165Z,1.43
2018-12-03T00:54:57.640Z,4.83
2018-12-03T00:57:26.195Z,1.57
2018-12-03T00:59:54.719Z,1.33
2018-12-03T01:02:25.667Z,1.60
2018-12-03T01:04:54.604Z,1.80
2018-12-03T01:07:23.105Z,2.00
2018-12-03T01:09:52.647Z,2.03
2018-12-03T01:12:21.134Z,2.60
2018-12-03T01:14:49.603Z,2.13
2018-12-03T01:17:18.071Z,1.83
2018-12-03T01:19:46.576Z,3.70
2018-12-03T01:22:15.023Z,2.30
2018-12-03T01:24:43.523Z,1.47
2018-12-03T01:27:11.971Z,2.33
2018-12-03T01:29:40.496Z,1.77
2018-12-03T01:32:08.676Z,4.70
2018-12-03T01:34:37.185Z,1.83
2018-12-03T01:37:05.659Z,2.90
2018-12-03T01:39:34.240Z,2.60
2018-12-03T01:42:02.694Z,1.57
2018-12-03T01:44:31.183Z,1.67
2018-12-03T01:46:59.650Z,1.93
2018-12-03T01:49:28.127Z,2.80
2018-12-03T01:51:56.619Z,4.33
2018-12-03T01:54:25.106Z,2.37
2018-12-03T01:56:53.591Z,6.43
2018-12-03T01:59:22.051Z,2.50
2018-12-03T02:01:50.559Z,6.80
2018-12-03T02:04:19.016Z,3.83
2018-12-03T02:06:47.490Z,4.00
2018-12-03T02:09:15.977Z,5.00
2018-12-03T02:11:44.471Z,2.57
2018-12-03T02:14:13.054Z,3.57
2018-12-03T02:16:41.542Z,3.30
2018-12-03T02:19:10.012Z,7.83
2018-12-03T02:21:38.534Z,3.60
2018-12-03T02:24:06.971Z,5.83
2018-12-03T02:26:36.483Z,4.70
2018-12-03T02:29:05.207Z,5.07
2018-12-03T02:31:33.696Z,5.10
2018-12-03T02:34:02.131Z,3.20
2018-12-03T02:36:30.612Z,3.73
2018-12-03T02:38:59.067Z,3.00
2018-12-03T02:41:27.571Z,4.23
2018-12-03T02:43:56.175Z,3.00
2018-12-03T02:46:24.640Z,3.73
2018-12-03T02:48:53.123Z,3.67
2018-12-03T02:51:21.607Z,3.80
2018-12-03T02:53:50.076Z,5.90
2018-12-03T02:56:18.596Z,7.07
2018-12-03T02:58:47.047Z,5.23
2018-12-03T03:01:15.576Z,3.50
2018-12-03T03:03:44.004Z,3.10
2018-12-03T03:06:12.516Z,2.67
2018-12-03T03:08:40.976Z,4.97
2018-12-03T03:11:09.463Z,2.57
2018-12-03T03:13:37.934Z,3.57
2018-12-03T03:16:06.443Z,4.70
2018-12-03T03:18:34.943Z,2.97
2018-12-03T03:21:03.414Z,7.43
2018-12-03T03:23:31.879Z,3.43
2018-12-03T03:26:00.342Z,5.50
2018-12-03T03:28:29.869Z,5.87
2018-12-03T03:30:58.332Z,3.63
2018-12-03T03:33:26.885Z,4.70
2018-12-03T03:35:55.292Z,4.73
2018-12-03T03:38:23.779Z,2.97
2018-12-03T03:40:52.377Z,1.77
2018-12-03T03:43:20.862Z,2.20
2018-12-03T03:45:49.319Z,2.80
2018-12-03T03:48:17.811Z,2.30
2018-12-03T03:50:46.292Z,1.23
2018-12-03T03:53:14.784Z,2.73
2018-12-03T03:55:43.243Z,1.50
2018-12-03T03:58:11.735Z,2.17
2018-12-03T04:00:40.244Z,1.23
2018-12-03T04:03:08.868Z,2.30
2018-12-03T04:05:37.269Z,1.90
2018-12-03T04:08:05.816Z,1.30
2018-12-03T04:10:34.291Z,2.70
2018-12-03T04:13:02.729Z,2.53
2018-12-03T04:15:31.215Z,1.57
2018-12-03T04:17:59.699Z,1.30
2018-12-03T04:20:28.180Z,1.70
2018-12-03T04:22:56.647Z,2.03
2018-12-03T04:25:25.149Z,2.07
2018-12-03T04:27:53.618Z,1.60
2018-12-03T04:30:22.956Z,2.13
2018-12-03T04:32:52.457Z,1.20
2018-12-03T04:35:21.121Z,1.10
2018-12-03T04:37:49.655Z,3.00
2018-12-03T04:40:18.095Z,0.87
2018-12-03T04:42:46.556Z,4.70
2018-12-03T04:45:16.237Z,4.27
2018-12-03T04:47:45.057Z,1.43
2018-12-03T04:50:14.747Z,1.37
2018-12-03T04:52:43.259Z,1.17
2018-12-03T04:55:12.406Z,5.90
2018-12-03T04:57:40.934Z,1.77
2018-12-03T05:00:14.552Z,2.13
2018-12-03T05:02:43.653Z,1.83
2018-12-03T05:05:12.164Z,2.10
2018-12-03T05:07:40.698Z,1.50
2018-12-03T05:10:12.424Z,2.07
2018-12-03T05:12:41.146Z,1.90
2018-12-03T05:15:10.744Z,1.30
2018-12-03T05:17:39.718Z,1.50
2018-12-03T05:20:09.749Z,1.63
2018-12-03T05:22:38.539Z,3.43
2018-12-03T05:25:09.490Z,2.20
2018-12-03T05:27:38.001Z,1.87
2018-12-03T05:30:10.453Z,1.20
2018-12-03T05:32:39.432Z,2.23
2018-12-03T05:35:12.034Z,2.07
2018-12-03T05:37:40.761Z,1.30
2018-12-03T05:40:12.962Z,1.13
2018-12-03T05:42:41.433Z,1.77
2018-12-03T05:45:10.576Z,2.20
2018-12-03T05:47:39.025Z,2.10
2018-12-03T05:50:10.950Z,3.20
2018-12-03T05:52:39.373Z,2.27
2018-12-03T05:55:09.423Z,7.77
2018-12-03T05:57:37.882Z,1.87
2018-12-03T06:00:17.473Z,4.33
2018-12-03T06:02:45.902Z,1.83
2018-12-03T06:05:15.117Z,3.63
2018-12-03T06:07:43.622Z,6.00
2018-12-03T06:10:15.485Z,3.13
2018-12-03T06:12:43.937Z,4.23
2018-12-03T06:15:13.646Z,1.93
2018-12-03T06:17:42.134Z,4.03
2018-12-03T06:20:12.027Z,4.67
2018-12-03T06:22:40.513Z,3.90
2018-12-03T06:25:11.523Z,5.07
2018-12-03T06:27:40.049Z,2.30
2018-12-03T06:30:17.902Z,5.80
2018-12-03T06:32:46.429Z,2.73
2018-12-03T06:35:15.733Z,2.83
2018-12-03T06:37:44.295Z,5.87
2018-12-03T06:40:19.145Z,6.13
2018-12-03T06:42:47.612Z,4.70
2018-12-03T06:45:18.477Z,4.00
2018-12-03T06:47:50.001Z,4.13
2018-12-03T06:50:18.536Z,2.70
2018-12-03T06:52:47.013Z,3.07
2018-12-03T06:55:15.424Z,7.63
2018-12-03T06:57:43.948Z,2.53
2018-12-03T07:00:14.861Z,4.23
2018-12-03T07:02:43.897Z,10.07
2018-12-03T07:05:12.638Z,7.00
2018-12-03T07:07:41.954Z,2.63
2018-12-03T07:10:19.345Z,3.83
2018-12-03T07:12:50.331Z,5.90
2018-12-03T07:15:20.174Z,4.20
2018-12-03T07:17:49.511Z,4.10
2018-12-03T07:20:17.987Z,3.10
2018-12-03T07:22:46.454Z,8.33
2018-12-03T07:25:14.978Z,6.23
2018-12-03T07:27:43.436Z,3.13
2018-12-03T07:30:19.499Z,4.03
2018-12-03T07:32:48.951Z,2.00
2018-12-03T07:35:18.328Z,3.63
2018-12-03T07:37:47.067Z,9.00
2018-12-03T07:40:15.626Z,4.57
2018-12-03T07:42:44.184Z,6.77
2018-12-03T07:45:14.222Z,9.40
2018-12-03T07:47:42.690Z,6.43
2018-12-03T07:50:12.399Z,9.00
2018-12-03T07:52:41.051Z,9.17
2018-12-03T07:55:17.636Z,5.30
2018-12-03T07:57:54.470Z,10.27
2018-12-03T08:00:25.252Z,7.50
2018-12-03T08:02:53.775Z,7.57
2018-12-03T08:05:22.238Z,12.97
2018-12-03T08:07:50.820Z,9.10
2018-12-03T08:10:19.372Z,8.17
2018-12-03T08:12:48.922Z,6.97
2018-12-03T08:22:47.975Z,3.90
2018-12-03T08:25:15.538Z,13.37
2018-12-03T08:27:43.007Z,9.30
2018-12-03T08:30:10.595Z,9.37
2018-12-03T08:32:38.080Z,12.23
2018-12-03T08:35:06.995Z,8.57
2018-12-03T08:37:34.472Z,10.30
2018-12-03T08:40:01.962Z,11.47
2018-12-03T08:42:29.439Z,12.97
2018-12-03T08:44:56.916Z,14.90
2018-12-03T08:47:24.409Z,12.73
2018-12-03T08:49:51.890Z,9.50
2018-12-03T08:52:19.348Z,6.67
2018-12-03T08:54:46.825Z,21.57
2018-12-03T08:57:14.296Z,19.30
2018-12-03T08:59:41.774Z,11.83
2018-12-03T09:02:09.241Z,10.90
2018-12-03T09:04:36.763Z,8.40
2018-12-03T09:07:04.412Z,6.63
2018-12-03T09:09:31.904Z,10.87
2018-12-03T09:11:59.372Z,12.47
2018-12-03T09:14:27.403Z,9.77
2018-12-03T09:16:54.908Z,19.33
2018-12-03T09:19:22.387Z,14.20
2018-12-03T09:21:49.851Z,13.23
2018-12-03T09:24:17.335Z,13.80
2018-12-03T09:26:44.806Z,16.43
2018-12-03T09:29:12.271Z,9.80
2018-12-03T09:31:39.824Z,12.17
2018-12-03T09:34:07.278Z,10.43
2018-12-03T09:36:34.767Z,10.60
2018-12-03T09:39:02.479Z,8.60
2018-12-03T09:41:30.078Z,13.03
2018-12-03T09:43:57.559Z,10.53
2018-12-03T09:46:25.043Z,16.50
2018-12-03T09:48:55.088Z,8.33
2018-12-03T09:51:26.511Z,7.93
2018-12-03T09:53:53.982Z,11.67
2018-12-03T09:56:25.689Z,14.03
2018-12-03T09:58:53.152Z,6.67
2018-12-03T10:01:20.629Z,11.73
2018-12-03T10:03:48.091Z,7.03
2018-12-03T10:06:15.592Z,10.30
2018-12-03T10:08:43.056Z,6.83
2018-12-03T10:11:10.526Z,7.77
2018-12-03T10:13:37.987Z,8.30
2018-12-03T10:16:05.464Z,9.50
2018-12-03T10:18:32.928Z,7.23
2018-12-03T10:21:00.398Z,11.13
2018-12-03T10:23:27.899Z,9.40
2018-12-03T10:25:55.354Z,6.07
2018-12-03T10:28:22.838Z,7.80
2018-12-03T10:30:50.306Z,9.73
2018-12-03T10:33:17.778Z,7.50
2018-12-03T10:35:45.324Z,8.00
2018-12-03T10:38:12.828Z,13.00
2018-12-03T10:40:40.295Z,8.13
2018-12-03T10:43:08.741Z,7.27
2018-12-03T10:45:36.228Z,5.80
2018-12-03T10:48:03.774Z,13.23
2018-12-03T10:50:31.247Z,14.13
2018-12-03T10:53:00.006Z,7.20
2018-12-03T10:55:27.663Z,19.03
2018-12-03T10:57:55.306Z,5.73
2018-12-03T11:00:24.750Z,8.53
2018-12-03T11:03:09.106Z,8.30
2018-12-03T11:05:42.205Z,8.73
2018-12-03T11:08:09.754Z,7.90
2018-12-03T11:10:37.291Z,13.57
2018-12-03T11:13:04.847Z,17.07
2018-12-03T11:15:32.463Z,11.43
2018-12-03T11:18:00.187Z,15.90
2018-12-03T11:20:27.666Z,10.03
2018-12-03T11:22:55.206Z,8.97
2018-12-03T11:25:26.150Z,7.23
2018-12-03T11:27:53.959Z,15.37
2018-12-03T11:30:21.519Z,14.47
2018-12-03T11:32:49.031Z,13.03
2018-12-03T11:35:20.488Z,15.77
2018-12-03T11:37:47.956Z,11.87
2018-12-03T11:40:17.484Z,28.37
2018-12-03T11:42:44.947Z,11.97
2018-12-03T11:45:12.604Z,15.63
2018-12-03T11:47:40.066Z,15.93
2018-12-03T11:50:08.776Z,9.13
2018-12-03T11:52:36.246Z,14.17
2018-12-03T11:55:05.471Z,10.33
2018-12-03T11:57:32.957Z,10.30
2018-12-03T12:00:00.427Z,10.87
2018-12-03T12:02:27.915Z,10.20
2018-12-03T12:04:55.380Z,8.30
2018-12-03T12:07:22.871Z,15.87
2018-12-03T12:09:50.318Z,9.77
2018-12-03T12:12:17.804Z,6.73
2018-12-03T12:14:45.273Z,13.70
2018-12-03T12:17:12.756Z,10.00
2018-12-03T12:19:40.215Z,7.43
2018-12-03T12:22:07.800Z,7.70
2018-12-03T12:24:36.435Z,9.90
2018-12-03T12:27:04.495Z,12.10
2018-12-03T12:29:31.961Z,8.87
2018-12-03T12:31:59.442Z,11.40
2018-12-03T12:34:26.901Z,13.30
2018-12-03T12:36:54.367Z,11.60
2018-12-03T12:39:21.854Z,10.57
2018-12-03T12:41:49.336Z,13.37
2018-12-03T12:44:16.820Z,17.10
2018-12-03T12:46:44.283Z,11.13
2018-12-03T12:49:11.763Z,16.37
2018-12-03T12:51:39.227Z,11.30
2018-12-03T12:54:06.784Z,12.80
2018-12-03T12:56:34.251Z,19.73
2018-12-03T12:59:01.791Z,10.40
2018-12-03T13:01:29.253Z,11.83
2018-12-03T13:03:56.741Z,8.40
2018-12-03T13:06:24.234Z,9.00
2018-12-03T13:08:51.699Z,8.83
2018-12-03T13:11:19.175Z,11.20
2018-12-03T13:13:46.643Z,10.43
2018-12-03T13:16:14.125Z,6.50
2018-12-03T13:18:41.577Z,8.00
2018-12-03T13:21:09.059Z,10.40
2018-12-03T13:23:36.523Z,5.37
2018-12-03T13:26:04.374Z,13.70
2018-12-03T13:28:31.872Z,5.07
2018-12-03T13:30:59.350Z,11.17
2018-12-03T13:33:26.862Z,8.90
2018-12-03T13:35:54.340Z,10.80
2018-12-03T13:38:21.807Z,6.23
2018-12-03T13:40:49.291Z,7.10
2018-12-03T13:43:16.766Z,9.70
2018-12-03T13:45:44.341Z,9.30
2018-12-03T13:48:11.822Z,9.77
2018-12-03T13:50:39.315Z,10.80
2018-12-03T13:53:06.791Z,9.13
2018-12-03T13:55:34.248Z,11.73
2018-12-03T13:58:01.734Z,13.47
2018-12-03T14:00:29.211Z,6.77
2018-12-03T14:02:56.682Z,11.47
2018-12-03T14:05:24.155Z,12.63
2018-12-03T14:07:51.829Z,7.43
2018-12-03T14:10:19.320Z,7.80
2018-12-03T14:12:46.946Z,7.97
2018-12-03T14:15:17.262Z,3.50
2018-12-03T14:17:44.849Z,7.13
2018-12-03T14:20:12.684Z,3.70
2018-12-03T14:22:40.168Z,8.37
2018-12-03T14:25:07.791Z,7.30
2018-12-03T14:27:35.292Z,8.63
2018-12-03T14:30:03.803Z,6.03
2018-12-03T14:32:31.279Z,6.40
2018-12-03T14:34:58.863Z,10.33
2018-12-03T14:37:26.396Z,4.77
2018-12-03T14:39:53.933Z,7.13
2018-12-03T14:42:21.505Z,10.83
2018-12-03T14:44:49.363Z,10.23
2018-12-03T14:47:16.931Z,12.47
2018-12-03T14:49:44.433Z,5.10
2018-12-03T14:52:11.892Z,5.43
2018-12-03T14:54:39.376Z,5.83
2018-12-03T14:57:06.863Z,12.53
2018-12-03T14:59:34.360Z,7.57
2018-12-03T15:02:01.877Z,5.17
2018-12-03T15:04:29.358Z,8.10
2018-12-03T15:06:56.848Z,10.37
2018-12-03T15:09:24.302Z,5.53
2018-12-03T15:11:51.787Z,7.07
2018-12-03T15:14:19.248Z,4.30
2018-12-03T15:16:46.727Z,4.37
2018-12-03T15:19:14.213Z,4.73
2018-12-03T15:21:41.691Z,3.80
2018-12-03T15:24:13.421Z,7.23
2018-12-03T15:26:38.719Z,5.27
2018-12-03T15:29:06.430Z,4.97
2018-12-03T15:31:33.960Z,11.13
2018-12-03T15:34:01.517Z,7.30
2018-12-03T15:36:28.980Z,4.43
2018-12-03T15:38:56.467Z,5.17
2018-12-03T15:41:23.935Z,8.40
2018-12-03T15:43:51.432Z,5.50
2018-12-03T15:46:18.932Z,8.40
2018-12-03T15:48:46.464Z,5.70
2018-12-03T15:51:13.943Z,8.40
2018-12-03T15:53:41.445Z,5.90
2018-12-03T15:56:08.919Z,5.93
2018-12-03T15:58:36.404Z,4.47
2018-12-03T16:01:03.906Z,11.83
2018-12-03T16:03:31.388Z,11.20
2018-12-03T16:05:58.849Z,7.13
2018-12-03T16:08:26.342Z,16.23
2018-12-03T16:10:53.820Z,33.20
2018-12-03T16:13:21.310Z,5.50
2018-12-03T16:15:48.796Z,4.37
2018-12-03T16:18:16.279Z,4.33
2018-12-03T16:20:43.750Z,3.50
2018-12-03T16:23:11.247Z,2.13
2018-12-03T16:25:38.728Z,4.00
2018-12-03T16:28:06.243Z,2.10
2018-12-03T16:30:33.799Z,2.37
2018-12-03T16:33:01.258Z,3.20
2018-12-03T16:35:28.746Z,3.23
2018-12-03T16:37:56.242Z,2.80
2018-12-03T16:40:23.765Z,5.93
2018-12-03T16:42:51.287Z,3.50
2018-12-03T16:45:18.774Z,5.77
2018-12-03T16:47:46.240Z,9.23
2018-12-03T16:50:13.885Z,3.50
2018-12-03T16:52:41.372Z,2.23
2018-12-03T16:55:08.861Z,4.90
2018-12-03T16:57:36.338Z,2.90
2018-12-03T17:00:06.433Z,3.33
2018-12-03T17:02:33.968Z,2.57
2018-12-03T17:05:01.449Z,3.30
2018-12-03T17:07:29.938Z,2.00
2018-12-03T17:09:57.425Z,3.40
2018-12-03T17:12:24.899Z,3.23
2018-12-03T17:14:52.371Z,3.30
2018-12-03T17:17:19.850Z,2.47
2018-12-03T17:19:47.318Z,5.77
2018-12-03T17:22:14.810Z,4.30
2018-12-03T17:24:42.362Z,5.60
2018-12-03T17:27:09.847Z,5.97
2018-12-03T17:29:37.319Z,5.03
2018-12-03T17:32:04.886Z,5.53
2018-12-03T17:34:32.355Z,4.73
2018-12-03T17:37:00.098Z,3.50
2018-12-03T17:39:27.607Z,10.73
2018-12-03T17:41:55.169Z,5.60
2018-12-03T17:44:22.639Z,6.70
2018-12-03T17:46:50.102Z,3.60
2018-12-03T17:49:17.570Z,6.43
2018-12-03T17:51:45.082Z,7.63
2018-12-03T17:54:12.563Z,4.30
2018-12-03T17:56:40.027Z,4.40
2018-12-03T17:59:07.482Z,8.27
2018-12-03T18:01:34.963Z,5.47
2018-12-03T18:04:02.455Z,5.13
2018-12-03T18:06:29.942Z,3.67
2018-12-03T18:08:57.412Z,4.63
2018-12-03T18:11:24.962Z,4.53
2018-12-03T18:13:52.431Z,5.40
2018-12-03T18:16:19.909Z,5.50
2018-12-03T18:18:47.378Z,5.93
2018-12-03T18:21:14.863Z,5.13
2018-12-03T18:23:42.366Z,7.60
2018-12-03T18:26:09.844Z,12.27
2018-12-03T18:28:37.324Z,6.30
2018-12-03T18:31:04.793Z,9.40
2018-12-03T18:33:32.302Z,11.40
2018-12-03T18:35:59.766Z,8.23
2018-12-03T18:38:27.328Z,10.07
2018-12-03T18:40:54.995Z,5.70
2018-12-03T18:43:22.482Z,11.90
2018-12-03T18:45:49.951Z,7.20
2018-12-03T18:48:17.508Z,7.40
2018-12-03T18:50:45.012Z,10.83
2018-12-03T18:53:12.528Z,4.43
2018-12-03T18:55:40.023Z,5.40
2018-12-03T18:58:07.756Z,11.23
2018-12-03T19:00:35.335Z,6.33
2018-12-03T19:03:02.790Z,7.03
2018-12-03T19:05:30.271Z,7.10
2018-12-03T19:07:57.741Z,11.00
2018-12-03T19:10:25.219Z,5.67
2018-12-03T19:12:52.702Z,8.07
2018-12-03T19:15:20.176Z,8.63
2018-12-03T19:17:47.647Z,4.10
2018-12-03T19:20:15.169Z,4.93
2018-12-03T19:22:42.631Z,5.90
2018-12-03T19:25:10.111Z,5.33
2018-12-03T19:27:37.579Z,6.50
2018-12-03T19:30:07.203Z,14.03
2018-12-03T19:32:34.684Z,13.63
2018-12-03T19:35:02.139Z,5.67
2018-12-03T19:37:29.618Z,9.93
2018-12-03T19:39:57.092Z,10.07
2018-12-03T19:42:24.606Z,11.40
2018-12-03T19:44:52.083Z,8.93
2018-12-03T19:47:19.708Z,7.37
2018-12-03T19:49:47.178Z,13.67
2018-12-03T19:52:14.674Z,11.77
2018-12-03T19:54:42.234Z,9.70
2018-12-03T19:57:09.737Z,14.30
2018-12-03T19:59:37.283Z,19.23
2018-12-03T20:02:04.783Z,10.17
2018-12-03T20:04:37.827Z,10.23
2018-12-03T20:07:05.339Z,15.90
2018-12-03T20:09:32.808Z,9.77
2018-12-03T20:12:00.289Z,9.97
2018-12-03T20:14:29.272Z,7.43
2018-12-03T20:16:56.878Z,14.73
2018-12-03T20:19:24.378Z,6.80
2018-12-03T20:21:51.850Z,12.43
2018-12-03T20:24:19.715Z,9.70
2018-12-03T20:26:47.331Z,13.03
2018-12-03T20:29:14.967Z,17.03
2018-12-03T20:31:44.143Z,9.13
2018-12-03T20:34:11.754Z,15.90
2018-12-03T20:36:39.325Z,11.53
2018-12-03T20:39:10.855Z,20.20
2018-12-03T20:41:38.419Z,17.60
2018-12-03T20:44:07.622Z,16.00
2018-12-03T20:46:36.384Z,14.40
2018-12-03T20:49:06.989Z,18.53
2018-12-03T20:51:34.541Z,15.77
2018-12-03T20:54:02.124Z,23.60
2018-12-03T20:56:29.623Z,16.00
2018-12-03T20:58:57.195Z,11.80
2018-12-03T21:01:24.692Z,14.40
2018-12-03T21:03:52.275Z,17.50
2018-12-03T21:06:19.790Z,16.73
2018-12-03T21:08:47.246Z,16.93
2018-12-03T21:11:14.748Z,20.50
2018-12-03T21:13:42.229Z,14.33
2018-12-03T21:16:09.703Z,16.70
2018-12-03T21:18:37.203Z,17.13
2018-12-03T21:21:04.938Z,15.80
2018-12-03T21:23:32.406Z,13.40
2018-12-03T21:25:59.893Z,14.03
2018-12-03T21:28:27.366Z,11.43
2018-12-03T21:30:54.860Z,19.60
2018-12-03T21:33:22.399Z,16.90
2018-12-03T21:35:49.867Z,13.70
2018-12-03T21:38:17.349Z,11.23
2018-12-03T21:40:44.803Z,10.10
2018-12-03T21:43:12.296Z,16.63
2018-12-03T21:45:39.786Z,29.87
2018-12-03T21:48:07.268Z,16.10
2018-12-03T21:50:34.735Z,14.70
2018-12-03T21:53:02.206Z,11.83
2018-12-03T21:55:29.675Z,9.20
2018-12-03T21:57:57.228Z,12.00
2018-12-03T22:00:24.762Z,11.80
2018-12-03T22:02:52.258Z,10.70
2018-12-03T22:05:19.714Z,12.17
2018-12-03T22:07:47.181Z,7.07
2018-12-03T22:10:14.734Z,12.67
2018-12-03T22:12:42.195Z,15.87
2018-12-03T22:15:09.751Z,11.57
2018-12-03T22:17:37.223Z,10.80
2018-12-03T22:20:06.878Z,12.20
2018-12-03T22:22:34.342Z,16.17
2018-12-03T22:25:01.827Z,12.53
2018-12-03T22:27:29.305Z,11.03
2018-12-03T22:29:56.803Z,12.73
2018-12-03T22:32:24.292Z,8.90
2018-12-03T22:34:51.766Z,11.17
2018-12-03T22:37:19.238Z,12.30
2018-12-03T22:39:46.939Z,10.37
2018-12-03T22:42:14.411Z,11.50
2018-12-03T22:44:41.896Z,11.53
2018-12-03T22:47:09.354Z,9.80
2018-12-03T22:49:36.868Z,13.03
2018-12-03T22:52:04.395Z,14.77
2018-12-03T22:54:31.871Z,8.60
2018-12-03T22:56:59.389Z,7.03
2018-12-03T22:59:26.847Z,13.03
2018-12-03T23:01:54.367Z,10.27
2018-12-03T23:04:21.886Z,7.77
2018-12-03T23:06:49.367Z,14.20
2018-12-03T23:09:16.833Z,9.83
2018-12-03T23:11:44.314Z,17.10
2018-12-03T23:14:11.823Z,6.13
2018-12-03T23:16:39.403Z,8.80
2018-12-03T23:19:06.871Z,12.37
2018-12-03T23:21:34.363Z,8.17
2018-12-03T23:24:01.833Z,13.67
2018-12-03T23:26:29.333Z,9.87
2018-12-03T23:28:56.804Z,12.03
2018-12-03T23:31:24.263Z,9.83
2018-12-03T23:33:51.735Z,11.77
2018-12-03T23:36:19.358Z,10.03
2018-12-03T23:38:47.029Z,6.90
2018-12-03T23:41:14.500Z,8.50
2018-12-03T23:43:42.032Z,6.67
2018-12-03T23:46:09.519Z,5.97
2018-12-03T23:48:37.009Z,12.83
2018-12-03T23:51:04.469Z,5.93
2018-12-03T23:53:31.971Z,8.90
2018-12-03T23:55:59.543Z,7.30
2018-12-03T23:58:27.007Z,6.67
